createdAt,value
2022-09-07T00:00:46.588Z,47.05
2022-09-07T00:01:46.587Z,47.70
2022-09-07T00:02:46.624Z,48.82
2022-09-07T00:03:46.588Z,47.53
2022-09-07T00:04:46.652Z,47.21
2022-09-07T00:05:46.578Z,44.96
2022-09-07T00:06:46.556Z,46.57
2022-09-07T00:07:46.540Z,47.05
2022-09-07T00:08:47.585Z,46.89
2022-09-07T00:09:46.550Z,47.37
2022-09-07T00:10:46.531Z,46.08
2022-09-07T00:11:46.534Z,46.57
2022-09-07T00:12:46.511Z,48.02
2022-09-07T00:13:46.515Z,46.73
2022-09-07T00:14:46.480Z,44.96
2022-09-07T00:15:47.513Z,46.08
2022-09-07T00:16:46.488Z,47.05
2022-09-07T00:17:46.483Z,44.63
2022-09-07T00:18:46.711Z,45.44
2022-09-07T00:19:46.460Z,51.72
2022-09-07T00:20:46.452Z,48.02
2022-09-07T00:21:46.446Z,48.18
2022-09-07T00:22:46.435Z,46.57
2022-09-07T00:23:46.467Z,44.15
2022-09-07T00:24:46.459Z,44.79
2022-09-07T00:25:47.261Z,46.08
2022-09-07T00:26:46.428Z,46.08
2022-09-07T00:27:46.416Z,46.57
2022-09-07T00:28:46.439Z,45.76
2022-09-07T00:29:46.443Z,46.41
2022-09-07T00:30:46.395Z,44.96
2022-09-07T00:31:46.456Z,49.15
2022-09-07T00:32:46.383Z,48.98
2022-09-07T00:33:46.411Z,48.02
2022-09-07T00:34:46.368Z,48.50
2022-09-07T00:35:46.385Z,50.27
2022-09-07T00:36:46.352Z,48.98
2022-09-07T00:37:46.351Z,48.02
2022-09-07T00:38:46.415Z,45.60
2022-09-07T00:39:46.396Z,45.92
2022-09-07T00:40:46.344Z,45.92
2022-09-07T00:41:46.331Z,46.41
2022-09-07T00:42:46.327Z,47.53
2022-09-07T00:43:46.313Z,45.76
2022-09-07T00:44:46.299Z,46.25
2022-09-07T00:45:46.307Z,49.63
2022-09-07T00:46:46.354Z,47.05
2022-09-07T00:47:46.323Z,47.86
2022-09-07T00:48:46.275Z,47.53
2022-09-07T00:49:46.289Z,46.73
2022-09-07T00:50:46.265Z,45.28
2022-09-07T00:51:46.262Z,44.63
2022-09-07T00:52:46.480Z,44.79
2022-09-07T00:53:46.247Z,45.92
2022-09-07T00:54:46.248Z,45.76
2022-09-07T00:55:46.253Z,44.15
2022-09-07T00:56:46.239Z,47.05
2022-09-07T00:57:46.228Z,45.76
2022-09-07T00:58:46.233Z,46.08
2022-09-07T00:59:46.217Z,45.44
2022-09-07T01:00:46.188Z,45.92
2022-09-07T01:01:46.355Z,45.92
2022-09-07T01:02:46.360Z,45.28
2022-09-07T01:03:46.189Z,46.57
2022-09-07T01:04:46.177Z,46.08
2022-09-07T01:05:46.178Z,48.02
2022-09-07T01:06:46.160Z,49.63
2022-09-07T01:07:47.033Z,46.08
2022-09-07T01:08:46.257Z,46.89
2022-09-07T01:09:46.148Z,46.25
2022-09-07T01:10:46.132Z,45.60
2022-09-07T01:11:46.129Z,46.41
2022-09-07T01:12:46.120Z,46.25
2022-09-07T01:13:46.116Z,45.92
2022-09-07T01:14:46.129Z,46.41
2022-09-07T01:15:46.144Z,44.79
2022-09-07T01:16:46.100Z,46.25
2022-09-07T01:17:46.108Z,48.18
2022-09-07T01:18:46.090Z,47.70
2022-09-07T01:19:46.086Z,50.27
2022-09-07T01:20:46.072Z,48.66
2022-09-07T01:21:46.063Z,50.60
2022-09-07T01:22:46.047Z,49.15
2022-09-07T01:23:46.055Z,46.73
2022-09-07T01:24:46.071Z,47.37
2022-09-07T01:25:46.037Z,47.21
2022-09-07T01:26:46.036Z,47.37
2022-09-07T01:27:46.028Z,48.02
2022-09-07T01:28:46.020Z,47.86
2022-09-07T01:29:46.027Z,47.37
2022-09-07T01:30:46.045Z,50.27
2022-09-07T01:31:45.999Z,50.11
2022-09-07T01:32:46.008Z,49.95
2022-09-07T01:33:45.982Z,49.95
2022-09-07T01:34:45.999Z,46.57
2022-09-07T01:35:45.992Z,45.60
2022-09-07T01:36:45.960Z,47.05
2022-09-07T01:37:45.958Z,47.53
2022-09-07T01:38:45.950Z,45.92
2022-09-07T01:39:45.967Z,49.95
2022-09-07T01:40:45.946Z,46.08
2022-09-07T01:41:45.927Z,46.73
2022-09-07T01:42:45.927Z,45.92
2022-09-07T01:43:45.916Z,49.15
2022-09-07T01:44:45.923Z,46.08
2022-09-07T01:45:45.902Z,48.66
2022-09-07T01:46:45.990Z,47.53
2022-09-07T01:47:45.921Z,46.57
2022-09-07T01:48:45.879Z,45.60
2022-09-07T01:49:45.875Z,45.76
2022-09-07T01:50:45.871Z,45.12
2022-09-07T01:51:45.882Z,49.15
2022-09-07T01:52:45.855Z,50.43
2022-09-07T01:53:45.860Z,49.63
2022-09-07T01:54:45.843Z,51.72
2022-09-07T01:55:46.563Z,54.30
2022-09-07T01:56:45.827Z,53.01
2022-09-07T01:57:45.843Z,50.11
2022-09-07T01:58:45.816Z,46.57
2022-09-07T01:59:45.819Z,49.63
2022-09-07T02:00:45.806Z,50.92
2022-09-07T02:01:45.867Z,50.60
2022-09-07T02:02:45.859Z,47.53
2022-09-07T02:03:45.809Z,49.15
2022-09-07T02:04:45.770Z,51.56
2022-09-07T02:05:45.778Z,49.31
2022-09-07T02:06:45.767Z,48.50
2022-09-07T02:07:45.785Z,49.95
2022-09-07T02:08:45.747Z,47.53
2022-09-07T02:09:45.746Z,46.57
2022-09-07T02:10:45.747Z,46.73
2022-09-07T02:11:45.733Z,46.57
2022-09-07T02:12:45.726Z,48.02
2022-09-07T02:13:45.711Z,52.37
2022-09-07T02:14:49.372Z,47.05
2022-09-07T02:15:47.763Z,46.57
2022-09-07T02:16:45.682Z,47.70
2022-09-07T02:17:45.699Z,48.02
2022-09-07T02:18:45.691Z,49.79
2022-09-07T02:19:45.679Z,45.60
2022-09-07T02:20:45.678Z,49.47
2022-09-07T02:21:45.666Z,49.15
2022-09-07T02:22:45.665Z,49.95
2022-09-07T02:23:45.658Z,48.50
2022-09-07T02:24:45.651Z,47.70
2022-09-07T02:25:45.630Z,49.15
2022-09-07T02:26:45.623Z,47.37
2022-09-07T02:27:45.615Z,47.05
2022-09-07T02:28:45.616Z,46.08
2022-09-07T02:29:45.643Z,48.02
2022-09-07T02:30:45.677Z,46.73
2022-09-07T02:31:45.607Z,50.27
2022-09-07T02:32:45.602Z,48.50
2022-09-07T02:33:45.651Z,48.50
2022-09-07T02:34:45.590Z,46.73
2022-09-07T02:35:45.594Z,47.05
2022-09-07T02:36:45.575Z,47.70
2022-09-07T02:37:45.584Z,48.50
2022-09-07T02:38:45.556Z,47.37
2022-09-07T02:39:45.619Z,48.50
2022-09-07T02:40:45.570Z,47.37
2022-09-07T02:41:45.578Z,49.63
2022-09-07T02:42:45.531Z,48.66
2022-09-07T02:43:45.522Z,50.76
2022-09-07T02:44:45.525Z,47.53
2022-09-07T02:45:45.526Z,50.43
2022-09-07T02:46:45.610Z,48.18
2022-09-07T02:47:45.515Z,50.76
2022-09-07T02:48:45.482Z,48.02
2022-09-07T02:49:45.486Z,48.66
2022-09-07T02:50:45.482Z,45.92
2022-09-07T02:51:45.490Z,50.92
2022-09-07T02:52:45.466Z,45.92
2022-09-07T02:53:45.458Z,43.67
2022-09-07T02:54:45.450Z,44.63
2022-09-07T02:55:45.445Z,45.92
2022-09-07T02:56:45.442Z,43.83
2022-09-07T02:57:45.426Z,42.38
2022-09-07T02:58:45.585Z,46.57
2022-09-07T02:59:45.426Z,48.98
2022-09-07T03:00:45.435Z,46.25
2022-09-07T03:01:45.433Z,46.89
2022-09-07T03:02:45.436Z,50.76
2022-09-07T03:03:45.407Z,44.47
2022-09-07T03:04:45.402Z,57.04
2022-09-07T03:05:45.377Z,44.15
2022-09-07T03:06:45.370Z,41.09
2022-09-07T03:07:45.366Z,52.69
2022-09-07T03:08:45.380Z,43.02
2022-09-07T03:09:45.408Z,52.21
2022-09-07T03:10:45.346Z,50.92
2022-09-07T03:11:45.350Z,45.44
2022-09-07T03:12:45.329Z,46.73
2022-09-07T03:13:45.334Z,46.08
2022-09-07T03:14:45.338Z,47.05
2022-09-07T03:15:45.370Z,47.53
2022-09-07T03:16:45.302Z,50.43
2022-09-07T03:17:45.325Z,51.08
2022-09-07T03:18:45.299Z,48.50
2022-09-07T03:19:45.289Z,53.01
2022-09-07T03:20:45.305Z,52.85
2022-09-07T03:21:45.276Z,52.53
2022-09-07T03:22:45.289Z,49.95
2022-09-07T03:23:47.809Z,49.95
2022-09-07T03:24:46.262Z,50.11
2022-09-07T03:25:45.245Z,50.76
2022-09-07T03:26:45.253Z,48.18
2022-09-07T03:28:17.694Z,43.02
2022-09-07T03:28:45.233Z,63.33
2022-09-07T03:29:45.225Z,44.31
2022-09-07T03:30:45.342Z,46.25
2022-09-07T03:31:45.214Z,54.62
2022-09-07T03:32:45.234Z,55.11
2022-09-07T03:33:45.258Z,59.30
2022-09-07T03:34:45.203Z,53.01
2022-09-07T03:35:45.193Z,50.76
2022-09-07T03:36:45.196Z,46.57
2022-09-07T03:37:45.178Z,47.05
2022-09-07T03:38:45.190Z,45.28
2022-09-07T03:39:45.247Z,50.60
2022-09-07T03:40:45.157Z,58.81
2022-09-07T03:41:45.153Z,53.98
2022-09-07T03:42:45.149Z,53.33
2022-09-07T03:43:45.146Z,50.92
2022-09-07T03:44:45.168Z,55.27
2022-09-07T03:45:45.180Z,59.46
2022-09-07T03:46:45.134Z,58.17
2022-09-07T03:47:45.120Z,52.37
2022-09-07T03:48:45.117Z,55.75
2022-09-07T03:49:45.157Z,65.10
2022-09-07T03:50:45.197Z,65.74
2022-09-07T03:51:45.102Z,58.01
2022-09-07T03:52:45.085Z,63.81
2022-09-07T03:53:45.094Z,48.50
2022-09-07T03:54:45.083Z,55.11
2022-09-07T03:55:45.086Z,68.80
2022-09-07T03:56:45.073Z,66.06
2022-09-07T03:57:45.058Z,59.94
2022-09-07T03:58:45.050Z,53.66
2022-09-07T03:59:45.058Z,55.11
2022-09-07T04:00:45.078Z,58.01
2022-09-07T04:01:45.112Z,62.36
2022-09-07T04:02:45.111Z,61.23
2022-09-07T04:03:45.013Z,58.33
2022-09-07T04:04:45.008Z,53.17
2022-09-07T04:05:45.021Z,46.25
2022-09-07T04:06:45.017Z,44.15
2022-09-07T04:07:44.997Z,44.79
2022-09-07T04:08:44.985Z,53.82
2022-09-07T04:09:45.025Z,59.94
2022-09-07T04:10:44.976Z,61.39
2022-09-07T04:11:44.981Z,65.74
2022-09-07T04:12:44.981Z,61.23
2022-09-07T04:13:45.017Z,52.05
2022-09-07T04:14:44.968Z,63.33
2022-09-07T04:15:44.952Z,62.68
2022-09-07T04:16:45.050Z,53.82
2022-09-07T04:17:44.939Z,51.72
2022-09-07T04:18:44.940Z,52.37
2022-09-07T04:19:44.917Z,49.95
2022-09-07T04:20:44.924Z,50.76
2022-09-07T04:21:44.908Z,59.94
2022-09-07T04:22:44.951Z,58.01
2022-09-07T04:23:44.903Z,62.36
2022-09-07T04:24:44.885Z,61.07
2022-09-07T04:25:44.894Z,58.49
2022-09-07T04:26:44.879Z,62.20
2022-09-07T04:27:44.888Z,72.19
2022-09-07T04:28:44.934Z,67.19
2022-09-07T04:29:44.863Z,65.10
2022-09-07T04:30:45.038Z,60.91
2022-09-07T04:31:44.851Z,51.24
2022-09-07T04:32:44.836Z,59.78
2022-09-07T04:33:44.839Z,56.07
2022-09-07T04:34:44.831Z,66.39
2022-09-07T04:35:46.760Z,65.74
2022-09-07T04:36:44.819Z,67.84
2022-09-07T04:37:44.809Z,58.49
2022-09-07T04:38:44.792Z,61.55
2022-09-07T04:39:45.641Z,58.01
2022-09-07T04:40:44.789Z,53.82
2022-09-07T04:41:44.796Z,69.45
2022-09-07T04:42:44.789Z,58.01
2022-09-07T04:43:44.760Z,65.90
2022-09-07T04:44:44.769Z,59.94
2022-09-07T04:45:44.788Z,65.42
2022-09-07T04:46:44.749Z,72.03
2022-09-07T04:47:44.745Z,65.90
2022-09-07T04:48:44.740Z,59.30
2022-09-07T04:49:44.737Z,61.07
2022-09-07T04:50:44.729Z,65.10
2022-09-07T04:51:44.761Z,62.84
2022-09-07T04:52:44.784Z,65.58
2022-09-07T04:53:45.796Z,64.78
2022-09-07T04:54:44.710Z,64.61
2022-09-07T04:55:44.767Z,62.04
2022-09-07T04:56:44.698Z,64.13
2022-09-07T04:57:44.726Z,64.94
2022-09-07T04:58:45.602Z,62.52
2022-09-07T04:59:44.692Z,67.03
2022-09-07T05:00:44.700Z,66.55
2022-09-07T05:01:44.715Z,59.30
2022-09-07T05:02:45.603Z,57.69
2022-09-07T05:03:44.671Z,66.39
2022-09-07T05:04:44.656Z,66.55
2022-09-07T05:05:44.637Z,59.46
2022-09-07T05:06:44.618Z,66.55
2022-09-07T05:07:44.642Z,61.39
2022-09-07T05:08:44.624Z,65.26
2022-09-07T05:09:44.610Z,62.36
2022-09-07T05:10:44.588Z,51.56
2022-09-07T05:11:44.585Z,53.33
2022-09-07T05:12:44.605Z,69.29
2022-09-07T05:13:44.593Z,59.46
2022-09-07T05:14:44.571Z,59.30
2022-09-07T05:15:44.559Z,64.13
2022-09-07T05:16:44.636Z,61.87
2022-09-07T05:17:44.562Z,63.16
2022-09-07T05:18:44.567Z,61.71
2022-09-07T05:19:44.590Z,61.55
2022-09-07T05:20:44.594Z,61.87
2022-09-07T05:21:44.522Z,61.87
2022-09-07T05:22:44.547Z,57.36
2022-09-07T05:23:44.563Z,60.59
2022-09-07T05:24:44.510Z,64.94
2022-09-07T05:25:44.537Z,62.36
2022-09-07T05:26:44.498Z,63.49
2022-09-07T05:27:44.520Z,66.55
2022-09-07T05:28:44.488Z,67.68
2022-09-07T05:31:46.482Z,58.49
2022-09-07T05:32:44.483Z,54.95
2022-09-07T05:34:48.523Z,66.39
2022-09-07T05:35:44.457Z,65.58
2022-09-07T05:36:44.462Z,58.81
2022-09-07T05:37:44.466Z,69.77
2022-09-07T05:38:44.422Z,64.61
2022-09-07T05:39:44.507Z,62.84
2022-09-07T05:40:44.420Z,61.23
2022-09-07T05:41:45.097Z,60.26
2022-09-07T05:42:44.418Z,66.87
2022-09-07T05:44:46.558Z,68.64
2022-09-07T05:45:44.424Z,64.45
2022-09-07T05:46:44.381Z,64.13
2022-09-07T05:47:44.372Z,61.39
2022-09-07T05:48:44.361Z,63.97
2022-09-07T05:49:44.372Z,58.81
2022-09-07T05:50:44.353Z,59.78
2022-09-07T05:51:44.332Z,52.85
2022-09-07T05:52:44.336Z,70.42
2022-09-07T05:53:44.351Z,64.29
2022-09-07T05:54:44.369Z,65.42
2022-09-07T05:55:44.325Z,65.90
2022-09-07T05:56:44.325Z,62.04
2022-09-07T05:57:45.088Z,62.20
2022-09-07T05:58:44.297Z,56.24
2022-09-07T05:59:44.309Z,65.58
2022-09-07T06:00:44.309Z,64.13
2022-09-07T06:01:44.343Z,57.36
2022-09-07T06:02:44.360Z,55.43
2022-09-07T06:03:44.268Z,59.62
2022-09-07T06:04:44.268Z,60.42
2022-09-07T06:05:44.257Z,65.74
2022-09-07T06:06:59.140Z,58.81
2022-09-07T06:07:47.023Z,70.42
2022-09-07T06:08:44.242Z,63.00
2022-09-07T06:10:46.263Z,61.07
2022-09-07T06:11:44.232Z,63.65
2022-09-07T06:12:45.647Z,64.78
2022-09-07T06:13:44.200Z,59.30
2022-09-07T06:14:44.308Z,52.69
2022-09-07T06:15:44.209Z,59.30
2022-09-07T06:16:45.109Z,65.10
2022-09-07T06:17:44.308Z,67.19
2022-09-07T06:18:44.201Z,67.68
2022-09-07T06:19:44.196Z,53.66
2022-09-07T06:20:44.224Z,59.46
2022-09-07T06:21:44.160Z,53.33
2022-09-07T06:22:44.160Z,55.11
2022-09-07T06:23:44.154Z,57.36
2022-09-07T06:24:44.140Z,60.26
2022-09-07T06:25:44.193Z,60.91
2022-09-07T06:26:44.136Z,52.05
2022-09-07T06:27:44.121Z,66.39
2022-09-07T06:28:46.634Z,62.04
2022-09-07T06:29:44.116Z,61.55
2022-09-07T06:30:45.967Z,56.88
2022-09-07T06:32:46.279Z,66.87
2022-09-07T06:33:44.080Z,51.72
2022-09-07T06:34:44.090Z,55.75
2022-09-07T06:35:44.067Z,64.45
2022-09-07T06:36:44.079Z,67.68
2022-09-07T06:37:44.095Z,68.00
2022-09-07T06:38:44.056Z,54.79
2022-09-07T06:39:44.143Z,59.78
2022-09-07T06:40:44.056Z,58.01
2022-09-07T06:41:59.349Z,62.04
2022-09-07T06:42:46.068Z,57.69
2022-09-07T06:43:46.017Z,53.17
2022-09-07T06:44:45.011Z,61.07
2022-09-07T06:45:44.081Z,64.29
2022-09-07T06:47:46.024Z,51.08
2022-09-07T06:48:44.572Z,63.97
2022-09-07T06:49:43.992Z,56.72
2022-09-07T06:50:43.980Z,59.46
2022-09-07T06:51:43.999Z,58.49
2022-09-07T06:53:46.110Z,55.43
2022-09-07T06:54:59.591Z,55.11
2022-09-07T06:55:45.963Z,56.07
2022-09-07T06:56:44.028Z,51.88
2022-09-07T06:57:43.948Z,55.59
2022-09-07T06:58:44.089Z,60.59
2022-09-07T06:59:43.919Z,53.82
2022-09-07T07:00:44.026Z,56.40
2022-09-07T07:01:43.924Z,54.14
2022-09-07T07:02:43.912Z,57.04
2022-09-07T07:03:43.972Z,56.40
2022-09-07T07:04:43.894Z,50.43
2022-09-07T07:05:43.909Z,55.43
2022-09-07T07:06:43.912Z,49.79
2022-09-07T07:07:43.881Z,49.15
2022-09-07T07:08:43.893Z,49.79
2022-09-07T07:09:43.876Z,61.39
2022-09-07T07:10:43.865Z,61.23
2022-09-07T07:11:43.908Z,49.47
2022-09-07T07:14:33.820Z,50.27
2022-09-07T07:15:31.749Z,57.04
2022-09-07T07:16:30.767Z,62.52
2022-09-07T07:17:30.739Z,53.82
2022-09-07T07:18:30.749Z,59.78
2022-09-07T07:19:30.708Z,60.91
2022-09-07T07:20:30.723Z,65.10
2022-09-07T07:21:48.532Z,53.50
2022-09-07T07:22:48.147Z,58.81
2022-09-07T07:23:32.710Z,58.01
2022-09-07T07:24:30.696Z,60.42
2022-09-07T07:25:30.680Z,49.63
2022-09-07T07:26:30.681Z,52.21
2022-09-07T07:27:30.677Z,50.60
2022-09-07T07:29:32.669Z,66.71
2022-09-07T07:30:30.654Z,62.20
2022-09-07T07:31:30.645Z,56.56
2022-09-07T07:32:30.626Z,62.52
2022-09-07T07:33:30.918Z,58.81
2022-09-07T07:34:30.686Z,64.78
2022-09-07T07:35:30.608Z,56.72
2022-09-07T07:36:30.642Z,59.30
2022-09-07T07:37:30.602Z,63.33
2022-09-07T07:40:34.109Z,57.85
2022-09-07T07:42:03.516Z,63.81
2022-09-07T07:42:32.604Z,61.07
2022-09-07T07:43:30.649Z,50.76
2022-09-07T07:44:30.581Z,61.87
2022-09-07T07:46:32.717Z,59.30
2022-09-07T07:47:30.537Z,51.88
2022-09-07T07:48:30.627Z,56.40
2022-09-07T07:49:30.497Z,46.73
2022-09-07T07:50:32.464Z,54.95
2022-09-07T07:51:30.568Z,55.11
2022-09-07T07:53:41.640Z,63.81
2022-09-07T07:54:32.497Z,64.94
2022-09-07T07:55:45.860Z,57.20
2022-09-07T07:56:32.469Z,62.20
2022-09-07T07:57:31.517Z,67.35
2022-09-07T07:58:30.463Z,45.76
2022-09-07T07:59:30.466Z,49.95
2022-09-07T08:00:50.744Z,48.50
2022-09-07T08:01:33.524Z,55.75
2022-09-07T08:02:30.486Z,63.97
2022-09-07T08:03:30.616Z,64.78
2022-09-07T08:04:30.442Z,56.40
2022-09-07T08:05:30.410Z,57.36
2022-09-07T08:06:30.454Z,57.69
2022-09-07T08:07:30.444Z,51.08
2022-09-07T08:08:30.398Z,61.07
2022-09-07T08:09:30.447Z,62.20
2022-09-07T08:10:30.387Z,45.28
2022-09-07T08:11:30.395Z,55.43
2022-09-07T08:12:30.391Z,55.59
2022-09-07T08:13:30.373Z,50.92
2022-09-07T08:14:30.363Z,60.10
2022-09-07T08:15:30.388Z,53.01
2022-09-07T08:16:30.395Z,58.49
2022-09-07T08:17:30.339Z,60.26
2022-09-07T08:18:32.599Z,63.97
2022-09-07T08:19:30.338Z,56.72
2022-09-07T08:20:30.347Z,53.01
2022-09-07T08:21:31.147Z,63.65
2022-09-07T08:22:34.293Z,60.26
2022-09-07T08:23:31.410Z,52.21
2022-09-07T08:24:30.955Z,60.26
2022-09-07T08:25:30.335Z,52.69
2022-09-07T08:26:30.295Z,59.94
2022-09-07T08:27:30.282Z,55.59
2022-09-07T08:28:30.303Z,55.27
2022-09-07T08:29:33.790Z,54.95
2022-09-07T08:30:32.426Z,62.20
2022-09-07T08:31:30.413Z,55.91
2022-09-07T08:32:30.326Z,50.43
2022-09-07T08:33:30.313Z,57.36
2022-09-07T08:34:30.257Z,60.10
2022-09-07T08:35:30.244Z,62.20
2022-09-07T08:36:30.286Z,53.82
2022-09-07T08:37:30.953Z,62.36
2022-09-07T08:38:30.267Z,59.30
2022-09-07T08:39:30.224Z,61.07
2022-09-07T08:40:30.278Z,53.66
2022-09-07T08:41:30.250Z,50.11
2022-09-07T08:42:30.250Z,65.10
2022-09-07T08:43:31.037Z,53.82
2022-09-07T08:44:30.185Z,62.52
2022-09-07T08:45:30.198Z,56.40
2022-09-07T08:46:30.276Z,56.24
2022-09-07T08:47:30.203Z,61.71
2022-09-07T08:48:30.160Z,59.14
2022-09-07T08:49:30.299Z,54.95
2022-09-07T08:50:30.157Z,61.23
2022-09-07T08:51:30.152Z,57.20
2022-09-07T08:52:30.972Z,60.91
2022-09-07T08:53:31.135Z,55.43
2022-09-07T08:54:30.138Z,65.42
2022-09-07T08:55:30.146Z,57.04
2022-09-07T08:56:33.580Z,62.84
2022-09-07T08:57:31.197Z,55.43
2022-09-07T08:58:47.578Z,65.90
2022-09-07T08:59:32.130Z,62.20
2022-09-07T09:00:30.118Z,60.10
2022-09-07T09:01:31.636Z,56.72
2022-09-07T09:02:35.132Z,52.85
2022-09-07T09:03:32.622Z,63.49
2022-09-07T09:04:31.470Z,56.40
2022-09-07T09:05:30.224Z,52.37
2022-09-07T09:06:30.149Z,56.40
2022-09-07T09:07:30.091Z,62.84
2022-09-07T09:08:30.173Z,60.91
2022-09-07T09:09:30.044Z,60.75
2022-09-07T09:10:30.047Z,63.49
2022-09-07T09:11:30.136Z,61.87
2022-09-07T09:12:32.377Z,64.94
2022-09-07T09:13:31.159Z,52.85
2022-09-07T09:15:30.187Z,48.66
2022-09-07T09:16:30.065Z,59.30
2022-09-07T09:17:30.010Z,63.97
2022-09-07T09:18:30.040Z,63.65
2022-09-07T09:19:30.028Z,63.33
2022-09-07T09:20:30.003Z,65.42
2022-09-07T09:21:29.971Z,63.16
2022-09-07T09:22:30.004Z,63.16
2022-09-07T09:23:30.021Z,58.65
2022-09-07T09:24:29.993Z,61.55
2022-09-07T09:25:29.941Z,50.27
2022-09-07T09:26:30.952Z,60.59
2022-09-07T09:27:29.942Z,62.04
2022-09-07T09:29:01.914Z,64.94
2022-09-07T09:29:29.949Z,67.35
2022-09-07T09:30:29.930Z,58.17
2022-09-07T09:31:29.972Z,63.65
2022-09-07T09:32:29.917Z,61.87
2022-09-07T09:33:29.977Z,60.26
2022-09-07T09:34:33.398Z,60.10
2022-09-07T09:35:31.931Z,57.36
2022-09-07T09:36:29.907Z,68.00
2022-09-07T09:38:29.985Z,65.58
2022-09-07T09:39:30.001Z,46.73
2022-09-07T09:40:29.956Z,62.68
2022-09-07T09:41:29.876Z,65.58
2022-09-07T09:42:29.859Z,61.23
2022-09-07T09:43:30.859Z,55.91
2022-09-07T09:44:29.874Z,58.01
2022-09-07T09:45:30.002Z,62.52
2022-09-07T09:46:29.870Z,64.94
2022-09-07T09:47:30.374Z,65.90
2022-09-07T09:48:30.883Z,56.56
2022-09-07T09:49:29.852Z,58.49
2022-09-07T09:52:34.973Z,58.49
2022-09-07T09:53:31.810Z,64.78
2022-09-07T09:54:29.821Z,68.80
2022-09-07T09:55:35.045Z,59.46
2022-09-07T09:56:31.817Z,56.88
2022-09-07T09:57:29.798Z,64.13
2022-09-07T10:00:32.277Z,61.39
2022-09-07T10:01:30.769Z,63.33
2022-09-07T10:04:31.743Z,62.68
2022-09-07T10:05:29.740Z,52.37
2022-09-07T10:06:29.739Z,63.16
2022-09-07T10:07:29.722Z,59.46
2022-09-07T10:08:29.798Z,66.55
2022-09-07T10:09:29.707Z,59.62
2022-09-07T10:10:29.699Z,59.46
2022-09-07T10:12:05.039Z,63.97
2022-09-07T10:12:31.690Z,52.85
2022-09-07T10:13:30.720Z,63.97
2022-09-07T10:14:29.710Z,62.04
2022-09-07T10:15:29.691Z,55.27
2022-09-07T10:16:29.732Z,59.14
2022-09-07T10:17:30.534Z,48.34
2022-09-07T10:18:29.766Z,49.79
2022-09-07T10:19:29.660Z,65.90
2022-09-07T10:20:29.660Z,56.72
2022-09-07T10:21:29.652Z,59.62
2022-09-07T10:22:29.632Z,58.81
2022-09-07T10:23:29.624Z,64.29
2022-09-07T10:24:29.633Z,65.10
2022-09-07T10:25:29.597Z,64.13
2022-09-07T10:26:29.625Z,64.29
2022-09-07T10:27:29.590Z,54.62
2022-09-07T10:29:06.359Z,63.65
2022-09-07T10:29:31.592Z,53.50
2022-09-07T10:30:29.586Z,56.40
2022-09-07T10:31:29.617Z,57.36
2022-09-07T10:32:29.550Z,55.43
2022-09-07T10:33:29.554Z,61.55
2022-09-07T10:34:29.575Z,61.71
2022-09-07T10:35:29.555Z,63.97
2022-09-07T10:36:29.535Z,53.33
2022-09-07T10:37:29.561Z,55.91
2022-09-07T10:38:29.539Z,61.55
2022-09-07T10:39:29.551Z,62.68
2022-09-07T10:40:29.531Z,60.91
2022-09-07T10:41:29.524Z,60.42
2022-09-07T10:42:29.555Z,57.20
2022-09-07T10:43:29.542Z,62.68
2022-09-07T10:44:29.507Z,60.59
2022-09-07T10:45:29.611Z,64.61
2022-09-07T10:46:58.749Z,64.78
2022-09-07T10:47:31.564Z,62.52
2022-09-07T10:48:29.577Z,57.04
2022-09-07T10:49:29.480Z,57.85
2022-09-07T10:50:29.475Z,54.46
2022-09-07T10:51:29.467Z,64.61
2022-09-07T10:52:29.503Z,56.24
2022-09-07T10:53:42.844Z,65.10
2022-09-07T10:54:31.705Z,62.20
2022-09-07T10:55:29.461Z,60.91
2022-09-07T10:56:29.446Z,54.46
2022-09-07T10:57:29.447Z,58.81
2022-09-07T11:00:07.615Z,61.39
2022-09-07T11:00:31.423Z,63.16
2022-09-07T11:01:29.513Z,63.97
2022-09-07T11:02:29.436Z,63.81
2022-09-07T11:03:29.445Z,59.62
2022-09-07T11:04:29.398Z,61.87
2022-09-07T11:05:35.161Z,52.69
2022-09-07T11:06:31.386Z,60.10
2022-09-07T11:07:29.402Z,58.01
2022-09-07T11:08:29.573Z,49.63
2022-09-07T11:09:29.393Z,59.14
2022-09-07T11:10:29.366Z,60.42
2022-09-07T11:12:31.355Z,59.94
2022-09-07T11:13:29.359Z,65.74
2022-09-07T11:14:29.393Z,61.55
2022-09-07T11:15:29.381Z,49.15
2022-09-07T11:16:57.976Z,65.26
2022-09-07T11:17:31.592Z,59.94
2022-09-07T11:18:30.231Z,60.10
2022-09-07T11:19:37.641Z,56.07
2022-09-07T11:20:31.337Z,66.39
2022-09-07T11:21:57.652Z,64.13
2022-09-07T11:22:31.329Z,62.52
2022-09-07T11:23:29.314Z,66.71
2022-09-07T11:24:29.322Z,59.78
2022-09-07T11:25:29.718Z,61.55
2022-09-07T11:26:30.305Z,60.42
2022-09-07T11:27:29.291Z,60.10
2022-09-07T11:28:29.345Z,51.72
2022-09-07T11:29:29.682Z,62.68
2022-09-07T11:30:30.321Z,62.52
2022-09-07T11:31:29.324Z,62.52
2022-09-07T11:32:29.273Z,56.88
2022-09-07T11:33:29.262Z,65.10
2022-09-07T11:34:29.253Z,53.17
2022-09-07T11:35:29.269Z,66.06
2022-09-07T11:36:29.249Z,63.16
2022-09-07T11:37:29.241Z,54.95
2022-09-07T11:38:29.387Z,61.87
2022-09-07T11:39:29.323Z,60.75
2022-09-07T11:40:29.282Z,60.59
2022-09-07T11:41:29.227Z,57.04
2022-09-07T11:42:44.617Z,54.30
2022-09-07T11:43:31.359Z,67.68
2022-09-07T11:44:29.189Z,65.26
2022-09-07T11:45:29.225Z,62.52
2022-09-07T11:46:29.276Z,52.37
2022-09-07T11:47:29.220Z,52.05
2022-09-07T11:48:30.853Z,59.78
2022-09-07T11:49:30.200Z,61.23
2022-09-07T11:50:29.190Z,46.57
2022-09-07T11:51:29.173Z,60.26
2022-09-07T11:52:29.199Z,64.13
2022-09-07T11:53:29.170Z,54.95
2022-09-07T11:54:29.144Z,61.07
2022-09-07T11:55:29.156Z,62.68
2022-09-07T11:56:29.144Z,60.91
2022-09-07T11:57:29.155Z,58.01
2022-09-07T11:58:29.192Z,58.01
2022-09-07T11:59:32.492Z,62.20
2022-09-07T12:00:30.146Z,56.07
2022-09-07T12:01:29.116Z,58.97
2022-09-07T12:02:55.400Z,59.78
2022-09-07T12:03:31.377Z,59.46
2022-09-07T12:04:29.157Z,59.78
2022-09-07T12:05:29.228Z,64.94
2022-09-07T12:06:29.124Z,62.84
2022-09-07T12:07:29.108Z,63.33
2022-09-07T12:08:29.177Z,63.49
2022-09-07T12:09:29.093Z,61.55
2022-09-07T12:10:29.108Z,61.39
2022-09-07T12:11:29.076Z,60.59
2022-09-07T12:12:29.087Z,53.50
2022-09-07T12:13:29.052Z,60.59
2022-09-07T12:14:29.067Z,53.66
2022-09-07T12:15:29.080Z,65.10
2022-09-07T12:16:29.114Z,62.20
2022-09-07T12:17:29.049Z,63.65
2022-09-07T12:18:29.047Z,61.23
2022-09-07T12:19:29.025Z,62.04
2022-09-07T12:20:29.018Z,52.85
2022-09-07T12:21:29.048Z,56.88
2022-09-07T12:22:29.016Z,50.27
2022-09-07T12:23:29.011Z,64.29
2022-09-07T12:24:29.090Z,64.61
2022-09-07T12:25:29.047Z,58.81
2022-09-07T12:26:29.001Z,62.20
2022-09-07T12:27:29.005Z,60.42
2022-09-07T12:28:29.006Z,61.23
2022-09-07T12:29:28.988Z,52.21
2022-09-07T12:30:28.986Z,61.87
2022-09-07T12:31:39.167Z,53.98
2022-09-07T12:33:30.988Z,43.18
2022-09-07T12:34:28.973Z,63.33
2022-09-07T12:35:28.962Z,62.36
2022-09-07T12:36:28.959Z,67.51
2022-09-07T12:37:28.981Z,61.71
2022-09-07T12:38:28.977Z,55.75
2022-09-07T12:39:29.008Z,65.26
2022-09-07T12:40:29.943Z,59.62
2022-09-07T12:41:28.936Z,59.62
2022-09-07T12:42:32.546Z,62.04
2022-09-07T12:43:29.982Z,64.13
2022-09-07T12:44:29.508Z,62.52
2022-09-07T12:45:29.910Z,63.00
2022-09-07T12:46:28.969Z,65.42
2022-09-07T12:47:28.928Z,60.75
2022-09-07T12:48:28.980Z,61.55
2022-09-07T12:49:28.890Z,65.10
2022-09-07T12:50:28.879Z,59.94
2022-09-07T12:52:31.518Z,55.59
2022-09-07T12:53:29.921Z,62.36
2022-09-07T12:54:28.887Z,54.95
2022-09-07T12:55:29.679Z,54.62
2022-09-07T12:56:29.866Z,59.14
2022-09-07T12:57:29.421Z,52.85
2022-09-07T12:58:29.871Z,55.59
2022-09-07T12:59:29.446Z,64.61
2022-09-07T13:00:28.946Z,60.91
2022-09-07T13:01:28.906Z,57.85
2022-09-07T13:02:28.882Z,64.94
2022-09-07T13:04:30.848Z,59.14
2022-09-07T13:05:28.811Z,62.84
2022-09-07T13:07:30.809Z,68.80
2022-09-07T13:08:28.796Z,67.51
2022-09-07T13:09:28.908Z,66.71
2022-09-07T13:10:28.805Z,58.17
2022-09-07T13:11:28.783Z,60.26
2022-09-07T13:12:58.420Z,66.06
2022-09-07T13:14:30.897Z,65.58
2022-09-07T13:15:28.819Z,63.00
2022-09-07T13:16:29.084Z,64.45
2022-09-07T13:17:28.815Z,57.52
2022-09-07T13:18:28.756Z,60.26
2022-09-07T13:19:28.766Z,53.01
2022-09-07T13:20:28.932Z,64.45
2022-09-07T13:21:28.804Z,63.00
2022-09-07T13:22:28.726Z,58.81